createdAt,value
2022-12-31T00:00:08.823Z,8.90
2022-12-31T00:05:12.160Z,9.00
2022-12-31T00:10:16.723Z,9.20
2022-12-31T00:15:20.023Z,9.40
2022-12-31T00:20:23.169Z,9.40
2022-12-31T00:25:28.256Z,9.40
2022-12-31T00:30:32.007Z,9.50
2022-12-31T00:35:36.455Z,9.60
2022-12-31T00:40:40.960Z,9.50
2022-12-31T00:45:44.183Z,9.50
2022-12-31T00:50:47.506Z,9.30
2022-12-31T00:55:52.580Z,9.10
2022-12-31T01:00:56.551Z,9.10
2022-12-31T01:05:59.969Z,9.00
2022-12-31T01:11:20.500Z,8.90
2022-12-31T01:16:26.491Z,9.20
2022-12-31T01:21:30.269Z,9.20
2022-12-31T01:26:35.221Z,9.40
2022-12-31T01:31:39.128Z,9.60
2022-12-31T01:36:42.323Z,9.60
2022-12-31T01:41:48.136Z,9.60
2022-12-31T01:46:54.539Z,9.70
2022-12-31T01:52:04.290Z,9.90
2022-12-31T01:57:09.803Z,10.00
2022-12-31T02:02:15.056Z,10.00
2022-12-31T02:07:18.368Z,10.10
2022-12-31T02:12:23.766Z,10.10
2022-12-31T02:17:32.597Z,10.20
2022-12-31T02:22:52.018Z,10.30
2022-12-31T02:28:09.513Z,10.20
2022-12-31T02:33:22.070Z,10.30
2022-12-31T02:38:28.192Z,10.50
2022-12-31T02:43:31.388Z,10.50
2022-12-31T02:48:49.049Z,10.60
2022-12-31T02:54:10.411Z,10.70
2022-12-31T02:59:38.709Z,10.70
2022-12-31T03:04:46.352Z,10.70
2022-12-31T03:09:49.992Z,10.70
2022-12-31T03:14:53.782Z,10.60
2022-12-31T03:20:16.996Z,10.60
2022-12-31T03:25:35.804Z,10.60
2022-12-31T03:30:41.556Z,10.80
2022-12-31T03:35:47.702Z,10.70
2022-12-31T03:40:52.868Z,10.80
2022-12-31T03:45:59.783Z,10.90
2022-12-31T03:51:04.548Z,10.90
2022-12-31T03:56:07.963Z,10.90
2022-12-31T04:01:11.412Z,10.90
2022-12-31T04:06:16.531Z,10.80
2022-12-31T04:11:21.221Z,10.70
2022-12-31T04:16:24.554Z,10.70
2022-12-31T04:21:34.870Z,10.70
2022-12-31T04:26:39.237Z,10.70
2022-12-31T04:31:42.788Z,10.80
2022-12-31T04:36:47.340Z,10.90
2022-12-31T04:41:50.657Z,10.90
2022-12-31T04:46:53.927Z,11.10
2022-12-31T04:51:58.593Z,10.90
2022-12-31T04:57:01.725Z,10.90
2022-12-31T05:02:05.172Z,10.90
2022-12-31T05:07:09.953Z,10.80
2022-12-31T05:12:13.081Z,10.90
2022-12-31T05:17:16.389Z,10.90
2022-12-31T05:22:30.199Z,11.10
2022-12-31T05:27:33.875Z,11.10
2022-12-31T05:32:37.310Z,11.00
2022-12-31T05:37:41.816Z,11.00
2022-12-31T05:42:45.410Z,10.90
2022-12-31T05:47:48.750Z,10.90
2022-12-31T05:52:54.248Z,10.80
2022-12-31T05:57:57.404Z,10.80
2022-12-31T06:03:00.651Z,10.80
2022-12-31T06:08:05.411Z,10.90
2022-12-31T06:13:08.869Z,10.80
2022-12-31T06:18:12.787Z,10.70
2022-12-31T06:23:17.331Z,11.00
2022-12-31T06:28:20.899Z,10.90
2022-12-31T06:33:24.050Z,11.10
2022-12-31T06:38:30.331Z,11.10
2022-12-31T06:43:35.031Z,11.30
2022-12-31T06:48:38.941Z,11.40
2022-12-31T06:53:44.481Z,11.40
2022-12-31T06:58:48.472Z,11.50
2022-12-31T07:03:59.622Z,11.50
2022-12-31T07:09:10.397Z,11.60
2022-12-31T07:14:27.783Z,11.70
2022-12-31T07:19:46.012Z,11.90
2022-12-31T07:24:51.155Z,11.90
2022-12-31T07:30:03.223Z,12.10
2022-12-31T07:35:16.194Z,12.20
2022-12-31T07:40:30.080Z,12.40
2022-12-31T07:45:40.739Z,12.30
2022-12-31T07:50:44.563Z,12.60
2022-12-31T07:55:53.719Z,12.80
2022-12-31T08:00:59.336Z,12.90
2022-12-31T08:06:12.347Z,13.00
2022-12-31T08:11:25.436Z,13.20
2022-12-31T08:16:30.027Z,13.30
2022-12-31T08:21:43.711Z,13.50
2022-12-31T08:26:59.529Z,13.50
2022-12-31T08:32:11.490Z,13.50
2022-12-31T08:37:25.997Z,13.60
2022-12-31T08:42:38.089Z,13.70
2022-12-31T08:47:50.590Z,13.80
2022-12-31T08:52:56.604Z,13.70
2022-12-31T08:58:13.543Z,14.00
2022-12-31T09:03:25.654Z,14.10
2022-12-31T09:08:35.916Z,14.20
2022-12-31T09:14:01.035Z,14.30
2022-12-31T09:19:04.163Z,14.40
2022-12-31T09:24:10.753Z,14.50
2022-12-31T09:29:26.892Z,14.60
2022-12-31T09:34:36.207Z,14.60
2022-12-31T09:39:42.550Z,14.70
2022-12-31T09:45:21.570Z,14.60
2022-12-31T09:51:14.477Z,14.60
2022-12-31T09:56:23.012Z,14.40
2022-12-31T10:01:36.303Z,14.00
2022-12-31T10:06:49.417Z,13.90
2022-12-31T10:12:14.299Z,13.70
2022-12-31T10:17:30.743Z,13.60
2022-12-31T10:22:57.639Z,13.80
2022-12-31T10:28:13.368Z,13.70
2022-12-31T10:33:25.520Z,13.60
2022-12-31T10:38:38.143Z,13.60
2022-12-31T10:44:20.998Z,13.50
2022-12-31T10:50:03.069Z,13.80
2022-12-31T10:55:44.294Z,14.10
2022-12-31T11:00:56.912Z,14.40
2022-12-31T11:06:42.059Z,14.30
2022-12-31T11:11:53.238Z,14.00
2022-12-31T11:17:08.408Z,14.00
2022-12-31T11:22:36.838Z,13.90
2022-12-31T11:27:50.591Z,13.70
2022-12-31T11:33:08.937Z,13.70
2022-12-31T11:38:21.137Z,13.90
2022-12-31T11:43:38.825Z,14.00
2022-12-31T11:48:51.286Z,14.00
2022-12-31T11:54:15.047Z,14.10
2022-12-31T11:59:20.861Z,14.40
2022-12-31T12:04:24.313Z,14.50
2022-12-31T12:09:31.278Z,14.40
2022-12-31T12:14:37.933Z,14.40
2022-12-31T12:19:44.233Z,14.40
2022-12-31T12:24:53.944Z,14.60
2022-12-31T12:30:09.130Z,14.70
2022-12-31T12:35:15.777Z,14.80
2022-12-31T12:40:21.835Z,14.90
2022-12-31T12:45:29.313Z,15.30
2022-12-31T12:50:38.548Z,15.50
2022-12-31T12:55:51.688Z,15.60
2022-12-31T13:01:03.222Z,15.90
2022-12-31T13:06:21.994Z,16.00
2022-12-31T13:11:35.676Z,16.10
2022-12-31T13:16:47.014Z,16.10
2022-12-31T13:21:57.925Z,16.10
2022-12-31T13:27:08.749Z,16.00
2022-12-31T13:32:19.652Z,16.10
2022-12-31T13:37:28.485Z,16.30
2022-12-31T13:42:40.172Z,16.40
2022-12-31T13:47:48.340Z,16.40
2022-12-31T13:52:57.882Z,16.60
2022-12-31T13:58:09.701Z,16.60
2022-12-31T14:03:23.284Z,16.60
2022-12-31T14:08:27.584Z,16.60
2022-12-31T14:13:51.480Z,16.60
2022-12-31T14:19:03.181Z,16.50
2022-12-31T14:24:13.240Z,16.30
2022-12-31T14:29:26.577Z,16.40
2022-12-31T14:34:40.767Z,16.50
2022-12-31T14:39:53.802Z,16.30
2022-12-31T14:45:15.097Z,16.10
2022-12-31T14:50:24.776Z,16.10
2022-12-31T14:55:30.589Z,15.80
2022-12-31T15:00:35.808Z,15.50
2022-12-31T15:05:50.089Z,15.50
2022-12-31T15:11:13.474Z,15.20
2022-12-31T15:16:32.884Z,15.40
2022-12-31T15:21:56.930Z,15.50
2022-12-31T15:27:02.947Z,15.50
2022-12-31T15:32:15.109Z,15.60
2022-12-31T15:37:31.292Z,15.40
2022-12-31T15:42:49.521Z,15.50
2022-12-31T15:47:58.072Z,15.50
2022-12-31T15:53:05.353Z,15.60
2022-12-31T15:58:12.626Z,15.60
2022-12-31T16:03:22.261Z,15.60
2022-12-31T16:08:31.586Z,15.80
2022-12-31T16:13:40.379Z,15.80
2022-12-31T16:18:44.476Z,15.90
2022-12-31T16:23:52.576Z,16.10
2022-12-31T16:28:59.897Z,16.30
2022-12-31T16:34:05.959Z,16.30
2022-12-31T16:39:25.854Z,16.30
2022-12-31T16:44:30.505Z,16.40
2022-12-31T16:49:37.719Z,16.50
2022-12-31T16:54:47.305Z,16.50
2022-12-31T16:59:54.706Z,16.50
2022-12-31T17:04:58.164Z,16.30
2022-12-31T17:10:12.927Z,16.30
2022-12-31T17:15:21.461Z,16.30
2022-12-31T17:20:27.286Z,16.40
2022-12-31T17:25:34.131Z,16.50
2022-12-31T17:30:41.355Z,16.60
2022-12-31T17:35:45.263Z,16.60
2022-12-31T17:40:52.540Z,16.60
2022-12-31T17:45:56.278Z,16.60
2022-12-31T17:51:01.001Z,16.70
2022-12-31T17:56:07.807Z,16.60
2022-12-31T18:01:15.467Z,16.60
2022-12-31T18:06:19.611Z,16.60
2022-12-31T18:11:25.282Z,16.40
2022-12-31T18:16:28.743Z,16.50
2022-12-31T18:21:34.417Z,16.30
2022-12-31T18:26:39.268Z,16.20
2022-12-31T18:31:44.974Z,16.00
2022-12-31T18:36:48.417Z,15.90
2022-12-31T18:41:53.174Z,15.80
2022-12-31T18:46:56.613Z,15.70
2022-12-31T18:52:00.170Z,15.70
2022-12-31T18:57:04.799Z,15.80
2022-12-31T19:02:15.359Z,15.70
2022-12-31T19:07:18.711Z,15.70
2022-12-31T19:12:23.335Z,15.70
2022-12-31T19:17:26.647Z,15.70
2022-12-31T19:22:29.774Z,15.70
2022-12-31T19:27:34.276Z,15.80
2022-12-31T19:32:37.533Z,15.80
2022-12-31T19:37:41.661Z,15.90
2022-12-31T19:42:46.350Z,15.70
2022-12-31T19:47:50.233Z,15.50
2022-12-31T19:52:55.488Z,15.50
2022-12-31T19:57:59.891Z,15.60
2022-12-31T20:03:03.380Z,15.60
2022-12-31T20:08:06.811Z,15.70
2022-12-31T20:13:11.708Z,15.60
2022-12-31T20:18:20.963Z,15.50
2022-12-31T20:23:24.205Z,15.60
2022-12-31T20:28:29.150Z,15.50
2022-12-31T20:33:32.601Z,15.60
2022-12-31T20:38:35.803Z,15.60
2022-12-31T20:43:41.572Z,15.70
2022-12-31T20:48:45.391Z,15.60
2022-12-31T20:53:50.549Z,15.70
2022-12-31T20:58:55.337Z,15.80
2022-12-31T21:04:05.298Z,15.80
2022-12-31T21:09:10.149Z,15.90
2022-12-31T21:14:14.880Z,16.00
2022-12-31T21:19:18.041Z,16.10
2022-12-31T21:24:24.121Z,16.00
2022-12-31T21:29:34.259Z,16.20
2022-12-31T21:34:38.026Z,16.10
2022-12-31T21:39:41.186Z,16.10
2022-12-31T21:44:45.804Z,16.10
2022-12-31T21:49:49.814Z,16.10
2022-12-31T21:55:11.944Z,15.80
2022-12-31T22:00:43.731Z,15.90
2022-12-31T22:05:50.525Z,16.00
2022-12-31T22:10:55.040Z,16.10
2022-12-31T22:16:05.180Z,16.20
2022-12-31T22:21:17.788Z,16.20
2022-12-31T22:26:24.330Z,16.10
2022-12-31T22:31:32.785Z,16.10
2022-12-31T22:36:36.054Z,16.10
2022-12-31T22:41:41.519Z,16.20
2022-12-31T22:46:46.071Z,16.10
2022-12-31T22:51:56.708Z,15.90
2022-12-31T22:57:03.512Z,15.90
2022-12-31T23:02:08.200Z,15.90
2022-12-31T23:07:11.357Z,15.90
2022-12-31T23:12:14.486Z,15.80
2022-12-31T23:17:40.369Z,15.70
2022-12-31T23:23:02.327Z,15.60
2022-12-31T23:28:07.402Z,15.70
2022-12-31T23:33:16.008Z,15.70
2022-12-31T23:38:19.406Z,15.60
2022-12-31T23:43:22.847Z,15.40
2022-12-31T23:48:27.363Z,15.50
2022-12-31T23:53:30.651Z,15.50
2022-12-31T23:58:33.933Z,15.60
